createdAt,value
2019-03-13T00:00:56.624Z,7.30
2019-03-13T00:03:25.354Z,7.20
2019-03-13T00:05:53.832Z,7.20
2019-03-13T00:08:22.237Z,7.10
2019-03-13T00:10:50.667Z,7.00
2019-03-13T00:13:19.200Z,6.90
2019-03-13T00:15:49.750Z,6.90
2019-03-13T00:18:37.069Z,6.70
2019-03-13T00:21:05.486Z,6.60
2019-03-13T00:23:33.892Z,6.50
2019-03-13T00:26:02.674Z,6.40
2019-03-13T00:28:31.147Z,6.30
2019-03-13T00:30:59.577Z,6.10
2019-03-13T00:33:27.985Z,6.00
2019-03-13T00:35:56.419Z,5.80
2019-03-13T00:38:25.092Z,5.70
2019-03-13T00:40:53.779Z,5.60
2019-03-13T00:43:22.461Z,5.50
2019-03-13T00:45:50.867Z,5.40
2019-03-13T00:48:19.309Z,5.20
2019-03-13T00:50:47.721Z,5.10
2019-03-13T00:53:16.124Z,4.90
2019-03-13T00:55:44.563Z,4.90
2019-03-13T00:58:12.969Z,4.80
2019-03-13T01:00:49.149Z,4.80
2019-03-13T01:03:34.188Z,4.70
2019-03-13T01:06:22.401Z,4.70
2019-03-13T01:08:51.196Z,4.70
2019-03-13T01:11:19.638Z,4.60
2019-03-13T01:13:48.356Z,4.60
2019-03-13T01:16:16.854Z,4.60
2019-03-13T01:18:45.260Z,4.60
2019-03-13T01:21:13.681Z,4.50
2019-03-13T01:23:42.092Z,4.50
2019-03-13T01:26:10.513Z,4.50
2019-03-13T01:28:38.921Z,4.50
2019-03-13T01:31:18.004Z,4.40
2019-03-13T01:33:46.758Z,4.40
2019-03-13T01:36:15.177Z,4.40
2019-03-13T01:38:43.594Z,4.40
2019-03-13T01:41:12.023Z,4.40
2019-03-13T01:43:40.433Z,4.40
2019-03-13T01:46:08.849Z,4.40
2019-03-13T01:48:37.277Z,4.40
2019-03-13T01:51:05.680Z,4.40
2019-03-13T01:53:34.097Z,4.40
2019-03-13T01:56:02.521Z,4.50
2019-03-13T01:58:31.016Z,4.50
2019-03-13T02:00:59.423Z,4.40
2019-03-13T02:03:27.845Z,4.40
2019-03-13T02:05:56.261Z,4.40
2019-03-13T02:08:24.690Z,4.40
2019-03-13T02:10:53.104Z,4.40
2019-03-13T02:13:21.843Z,4.40
2019-03-13T02:15:50.825Z,4.40
2019-03-13T02:18:19.245Z,4.40
2019-03-13T02:20:47.661Z,4.40
2019-03-13T02:23:16.081Z,4.40
2019-03-13T02:25:44.489Z,4.40
2019-03-13T02:28:13.242Z,4.40
2019-03-13T02:30:41.653Z,4.30
2019-03-13T02:33:10.095Z,4.20
2019-03-13T02:35:38.557Z,4.10
2019-03-13T02:38:07.032Z,3.90
2019-03-13T02:40:35.454Z,3.80
2019-03-13T02:43:03.880Z,3.70
2019-03-13T02:45:32.288Z,3.60
2019-03-13T02:48:00.704Z,3.50
2019-03-13T02:50:29.113Z,3.50
2019-03-13T02:52:57.551Z,3.40
2019-03-13T02:55:25.954Z,3.40
2019-03-13T02:57:54.383Z,3.30
2019-03-13T03:00:39.409Z,3.20
2019-03-13T03:03:21.553Z,3.10
2019-03-13T03:05:49.961Z,3.10
2019-03-13T03:08:18.372Z,3.10
2019-03-13T03:10:46.789Z,3.00
2019-03-13T03:13:15.207Z,3.00
2019-03-13T03:15:43.613Z,3.00
2019-03-13T03:18:12.033Z,3.00
2019-03-13T03:20:40.445Z,3.00
2019-03-13T03:23:08.868Z,3.10
2019-03-13T03:25:37.276Z,3.10
2019-03-13T03:28:05.692Z,3.10
2019-03-13T03:30:34.107Z,3.20
2019-03-13T03:33:02.533Z,3.20
2019-03-13T03:35:30.943Z,3.20
2019-03-13T03:37:59.353Z,3.30
2019-03-13T03:40:27.773Z,3.30
2019-03-13T03:42:56.444Z,3.30
2019-03-13T03:45:24.848Z,3.10
2019-03-13T03:47:53.260Z,3.10
2019-03-13T03:50:21.673Z,3.10
2019-03-13T03:52:50.078Z,3.10
2019-03-13T03:55:18.497Z,3.10
2019-03-13T03:57:46.908Z,3.00
2019-03-13T04:00:19.085Z,3.10
2019-03-13T04:02:47.662Z,3.10
2019-03-13T04:05:16.715Z,3.10
2019-03-13T04:07:45.130Z,3.10
2019-03-13T04:10:14.941Z,3.10
2019-03-13T04:12:43.340Z,3.10
2019-03-13T04:15:16.349Z,3.20
2019-03-13T04:17:45.351Z,3.20
2019-03-13T04:20:17.873Z,3.20
2019-03-13T04:22:46.269Z,3.20
2019-03-13T04:25:26.907Z,3.20
2019-03-13T04:27:55.646Z,3.30
2019-03-13T04:30:24.058Z,3.30
2019-03-13T04:32:52.506Z,3.40
2019-03-13T04:35:20.988Z,3.30
2019-03-13T04:37:49.408Z,3.30
2019-03-13T04:40:17.826Z,3.20
2019-03-13T04:42:46.257Z,3.20
2019-03-13T04:45:14.702Z,3.10
2019-03-13T04:47:43.136Z,3.00
2019-03-13T04:50:15.312Z,3.00
2019-03-13T04:52:43.793Z,2.90
2019-03-13T04:55:13.540Z,3.00
2019-03-13T04:57:42.038Z,3.00
2019-03-13T05:00:18.416Z,3.00
2019-03-13T05:02:47.165Z,3.00
2019-03-13T05:05:37.048Z,3.00
2019-03-13T05:08:05.745Z,3.00
2019-03-13T05:10:34.164Z,3.00
2019-03-13T05:13:02.660Z,3.00
2019-03-13T05:15:31.274Z,3.00
2019-03-13T05:17:59.721Z,3.00
2019-03-13T05:20:28.182Z,3.00
2019-03-13T05:22:56.593Z,3.00
2019-03-13T05:25:25.018Z,3.00
2019-03-13T05:27:53.436Z,3.00
2019-03-13T05:30:21.848Z,3.00
2019-03-13T05:32:50.543Z,3.00
2019-03-13T05:35:18.985Z,3.00
2019-03-13T05:37:47.449Z,3.00
2019-03-13T05:40:15.885Z,2.90
2019-03-13T05:42:44.268Z,2.90
2019-03-13T05:45:13.054Z,2.80
2019-03-13T05:47:41.471Z,2.80
2019-03-13T05:50:11.412Z,2.70
2019-03-13T05:52:39.822Z,2.80
2019-03-13T05:55:08.511Z,2.80
2019-03-13T05:57:36.916Z,2.80
2019-03-13T06:00:09.840Z,2.90
2019-03-13T06:02:38.255Z,2.90
2019-03-13T06:05:08.209Z,2.90
2019-03-13T06:07:36.625Z,3.00
2019-03-13T06:10:07.656Z,3.00
2019-03-13T06:12:36.058Z,3.00
2019-03-13T06:15:06.852Z,3.10
2019-03-13T06:17:35.594Z,3.10
2019-03-13T06:20:10.777Z,3.20
2019-03-13T06:22:39.241Z,3.20
2019-03-13T06:25:10.137Z,3.20
2019-03-13T06:27:38.588Z,3.20
2019-03-13T06:30:13.190Z,3.30
2019-03-13T06:32:41.596Z,3.30
2019-03-13T06:35:10.393Z,3.30
2019-03-13T06:37:38.810Z,3.40
2019-03-13T06:40:10.664Z,3.40
2019-03-13T06:42:39.068Z,3.50
2019-03-13T06:45:10.521Z,3.60
2019-03-13T06:47:38.953Z,3.60
2019-03-13T06:50:15.884Z,3.60
2019-03-13T06:52:44.303Z,3.70
2019-03-13T06:55:12.852Z,3.70
2019-03-13T06:57:41.255Z,3.70
2019-03-13T07:00:29.566Z,3.80
2019-03-13T07:03:14.991Z,3.80
2019-03-13T07:05:50.960Z,3.80
2019-03-13T07:08:37.377Z,3.90
2019-03-13T07:11:07.427Z,3.90
2019-03-13T07:13:37.476Z,3.90
2019-03-13T07:16:22.791Z,4.00
2019-03-13T07:18:58.532Z,4.00
2019-03-13T07:21:31.548Z,4.00
2019-03-13T07:27:16.154Z,4.10
2019-03-13T07:29:52.201Z,4.10
2019-03-13T07:32:37.637Z,4.10
2019-03-13T07:35:11.657Z,4.20
2019-03-13T07:37:41.790Z,4.20
2019-03-13T07:40:18.344Z,4.30
2019-03-13T07:42:48.403Z,4.20
2019-03-13T07:45:27.358Z,4.30
2019-03-13T07:48:03.465Z,4.30
2019-03-13T07:50:39.639Z,4.40
2019-03-13T07:53:26.376Z,4.40
2019-03-13T07:55:59.104Z,4.40
2019-03-13T07:58:29.441Z,4.50
2019-03-13T08:01:16.164Z,4.50
2019-03-13T08:03:52.020Z,4.70
2019-03-13T08:06:38.244Z,4.80
2019-03-13T08:09:20.345Z,4.90
2019-03-13T08:11:53.352Z,5.00
2019-03-13T08:14:23.694Z,5.10
2019-03-13T08:19:50.883Z,5.00
2019-03-13T08:22:23.864Z,5.00
2019-03-13T08:25:09.028Z,5.00
2019-03-13T08:30:45.406Z,5.10
2019-03-13T08:33:18.696Z,5.10
2019-03-13T08:36:04.390Z,5.10
2019-03-13T08:38:34.441Z,5.10
2019-03-13T08:41:21.083Z,5.20
2019-03-13T08:43:51.141Z,5.10
2019-03-13T08:46:24.553Z,5.20
2019-03-13T08:48:57.494Z,5.30
2019-03-13T08:51:27.592Z,5.40
2019-03-13T08:54:00.452Z,5.40
2019-03-13T08:59:41.105Z,5.30
2019-03-13T09:02:29.419Z,5.10
2019-03-13T09:04:59.501Z,5.00
2019-03-13T09:07:38.901Z,5.00
2019-03-13T09:10:33.034Z,4.90
2019-03-13T09:13:05.785Z,5.00
2019-03-13T09:15:50.861Z,5.10
2019-03-13T09:18:23.960Z,5.20
2019-03-13T09:21:00.117Z,5.30
2019-03-13T09:23:30.172Z,5.50
2019-03-13T09:26:12.144Z,5.60
2019-03-13T09:28:42.209Z,5.60
2019-03-13T09:31:25.644Z,5.60
2019-03-13T09:33:55.797Z,5.60
2019-03-13T09:36:38.033Z,5.70
2019-03-13T09:39:18.461Z,5.70
2019-03-13T09:41:51.498Z,5.90
2019-03-13T09:44:21.568Z,6.00
2019-03-13T09:46:51.614Z,6.00
2019-03-13T09:49:27.402Z,6.00
2019-03-13T09:52:00.678Z,5.90
2019-03-13T09:54:39.974Z,5.80
2019-03-13T09:57:26.625Z,5.80
2019-03-13T10:00:08.688Z,5.90
2019-03-13T10:02:45.122Z,6.00
2019-03-13T10:05:18.281Z,6.20
2019-03-13T10:07:51.330Z,6.40
2019-03-13T10:10:36.773Z,6.70
2019-03-13T10:13:23.158Z,6.80
2019-03-13T10:15:53.223Z,6.90
2019-03-13T10:18:25.936Z,6.90
2019-03-13T10:20:55.985Z,7.00
2019-03-13T10:23:26.203Z,6.90
2019-03-13T10:26:07.988Z,6.80
2019-03-13T10:28:38.328Z,6.70
2019-03-13T10:31:08.684Z,6.60
2019-03-13T10:33:41.538Z,6.50
2019-03-13T10:36:11.598Z,6.60
2019-03-13T10:38:53.738Z,6.70
2019-03-13T10:41:23.806Z,6.80
2019-03-13T10:43:53.913Z,6.80
2019-03-13T10:46:40.529Z,6.90
2019-03-13T10:49:10.582Z,6.90
2019-03-13T10:51:56.864Z,7.00
2019-03-13T10:54:43.524Z,7.10
2019-03-13T10:57:13.569Z,7.30
2019-03-13T10:59:46.533Z,7.40
2019-03-13T11:02:22.253Z,7.30
2019-03-13T11:05:01.157Z,7.10
2019-03-13T11:07:46.529Z,7.20
2019-03-13T11:10:16.905Z,7.20
2019-03-13T11:12:52.951Z,7.10
2019-03-13T11:15:23.000Z,6.90
2019-03-13T11:18:01.946Z,7.00
2019-03-13T11:20:47.952Z,7.10
2019-03-13T11:23:18.045Z,7.10
2019-03-13T11:25:48.451Z,7.00
2019-03-13T11:28:30.971Z,6.90
2019-03-13T11:31:19.069Z,6.70
2019-03-13T11:34:04.121Z,6.60
2019-03-13T11:36:35.183Z,6.60
2019-03-13T11:39:16.086Z,6.50
2019-03-13T11:42:02.388Z,6.40
2019-03-13T11:44:44.684Z,6.50
2019-03-13T11:47:23.697Z,6.50
2019-03-13T11:50:10.120Z,6.40
2019-03-13T11:52:58.174Z,6.30
2019-03-13T11:55:40.454Z,6.40
2019-03-13T11:58:10.508Z,6.30
2019-03-13T12:00:40.632Z,6.40
2019-03-13T12:03:13.485Z,6.50
2019-03-13T12:06:00.222Z,6.40
2019-03-13T12:08:32.912Z,6.30
2019-03-13T12:11:11.538Z,6.20
2019-03-13T12:13:41.632Z,6.20
2019-03-13T12:16:14.515Z,6.30
2019-03-13T12:18:44.830Z,6.60
2019-03-13T12:21:20.828Z,6.90
2019-03-13T12:23:53.530Z,6.90
2019-03-13T12:26:32.365Z,6.90
2019-03-13T12:29:14.372Z,6.90
2019-03-13T12:31:50.632Z,6.70
2019-03-13T12:34:20.681Z,6.60
2019-03-13T12:36:59.221Z,6.50
2019-03-13T12:39:29.280Z,6.40
2019-03-13T12:41:59.335Z,6.20
2019-03-13T12:44:44.167Z,6.20
2019-03-13T12:47:14.234Z,6.10
2019-03-13T13:00:45.416Z,5.30
2019-03-13T13:03:18.388Z,5.10
2019-03-13T13:06:03.541Z,5.00
2019-03-13T13:08:33.581Z,5.10
2019-03-13T13:11:09.889Z,5.30
2019-03-13T13:13:39.970Z,5.60
2019-03-13T13:18:53.294Z,6.10
2019-03-13T13:31:14.362Z,6.20
2019-03-13T13:33:42.767Z,6.40
2019-03-13T13:36:11.191Z,6.40
2019-03-13T13:38:39.601Z,6.50
2019-03-13T13:41:08.014Z,6.50
2019-03-13T13:43:36.440Z,6.60
2019-03-13T13:46:11.116Z,6.80
2019-03-13T13:53:35.696Z,7.20
2019-03-13T14:01:00.340Z,7.50
2019-03-13T14:03:28.801Z,7.50
2019-03-13T14:05:57.265Z,7.50
2019-03-13T14:08:25.663Z,7.50
2019-03-13T14:10:54.081Z,7.50
2019-03-13T14:13:22.485Z,7.50
2019-03-13T14:15:50.906Z,7.70
2019-03-13T14:18:19.673Z,7.70
2019-03-13T14:20:48.076Z,7.70
2019-03-13T14:23:16.492Z,7.70
2019-03-13T14:25:44.910Z,7.60
2019-03-13T14:28:13.325Z,7.50
2019-03-13T14:30:42.076Z,7.40
2019-03-13T14:33:10.489Z,7.20
2019-03-13T14:35:38.891Z,7.20
2019-03-13T14:38:07.376Z,7.10
2019-03-13T14:40:35.781Z,7.10
2019-03-13T14:43:04.196Z,7.10
2019-03-13T14:45:32.599Z,7.00
2019-03-13T14:48:01.014Z,7.10
2019-03-13T14:52:57.808Z,7.10
2019-03-13T15:00:41.700Z,7.10
2019-03-13T15:03:10.112Z,7.20
2019-03-13T15:05:38.841Z,7.20
2019-03-13T15:08:07.324Z,7.00
2019-03-13T15:10:35.724Z,6.90
2019-03-13T15:13:04.143Z,6.70
2019-03-13T15:15:32.549Z,6.60
2019-03-13T15:18:00.969Z,6.60
2019-03-13T15:25:26.301Z,6.30
2019-03-13T15:27:54.714Z,6.30
2019-03-13T15:30:28.492Z,6.30
2019-03-13T15:32:56.953Z,6.20
2019-03-13T15:35:25.357Z,6.20
2019-03-13T15:37:53.777Z,6.10
2019-03-13T15:40:22.264Z,6.10
2019-03-13T15:42:50.681Z,6.10
2019-03-13T15:45:46.898Z,6.10
2019-03-13T15:50:43.401Z,6.00
2019-03-13T16:00:36.073Z,5.90
2019-03-13T16:03:04.494Z,5.80
2019-03-13T16:05:52.240Z,5.70
2019-03-13T16:08:20.663Z,5.80
2019-03-13T16:10:49.069Z,5.80
2019-03-13T16:13:17.489Z,5.70
2019-03-13T16:15:46.401Z,5.80
2019-03-13T16:18:14.994Z,5.70
2019-03-13T16:20:43.417Z,5.70
2019-03-13T16:30:40.485Z,5.80
2019-03-13T16:33:08.916Z,5.70
2019-03-13T16:35:37.313Z,5.70
2019-03-13T16:38:05.733Z,5.70
2019-03-13T16:40:34.212Z,5.60
2019-03-13T16:43:02.624Z,5.60
2019-03-13T16:45:31.053Z,5.60
2019-03-13T16:47:59.716Z,5.50
2019-03-13T16:50:32.620Z,5.50
2019-03-13T16:55:29.193Z,5.40
2019-03-13T16:57:57.597Z,5.40
2019-03-13T17:00:26.958Z,5.40
2019-03-13T17:02:55.905Z,5.30
2019-03-13T17:05:24.406Z,5.20
2019-03-13T17:10:23.018Z,5.20
2019-03-13T17:12:51.425Z,5.20
2019-03-13T17:15:21.753Z,5.10
2019-03-13T17:17:50.306Z,5.10
2019-03-13T17:20:26.245Z,5.10
2019-03-13T17:22:54.084Z,5.10
2019-03-13T17:25:22.572Z,5.10
2019-03-13T17:30:23.973Z,5.10
2019-03-13T17:32:52.456Z,5.10
2019-03-13T17:35:20.865Z,5.00
2019-03-13T17:37:49.272Z,5.00
2019-03-13T17:40:25.551Z,5.00
2019-03-13T17:42:54.400Z,5.00
2019-03-13T17:45:24.937Z,5.00
2019-03-13T17:52:50.354Z,5.00
2019-03-13T17:55:25.492Z,5.00
2019-03-13T18:00:31.289Z,5.00
2019-03-13T18:02:59.688Z,5.00
2019-03-13T18:05:28.185Z,5.00
2019-03-13T18:07:56.600Z,5.00
2019-03-13T18:12:53.461Z,5.10
2019-03-13T18:15:21.882Z,5.00
2019-03-13T18:17:50.340Z,5.00
2019-03-13T18:22:48.521Z,4.90
2019-03-13T18:25:18.404Z,4.90
2019-03-13T18:27:47.243Z,4.90
2019-03-13T18:30:32.852Z,4.90
2019-03-13T18:35:29.417Z,4.90
2019-03-13T18:37:58.108Z,4.80
2019-03-13T18:40:26.527Z,4.80
2019-03-13T18:42:55.009Z,4.70
2019-03-13T18:47:58.629Z,4.60
2019-03-13T18:50:27.369Z,4.50
2019-03-13T18:57:52.816Z,4.30
2019-03-13T19:02:53.639Z,4.20
2019-03-13T19:05:22.893Z,4.10
2019-03-13T19:07:51.293Z,4.00
2019-03-13T19:10:30.317Z,4.00
2019-03-13T19:12:59.281Z,3.90
2019-03-13T19:15:29.036Z,3.90
2019-03-13T19:27:52.084Z,3.90
2019-03-13T19:30:37.558Z,3.90
2019-03-13T19:33:05.420Z,3.80
2019-03-13T19:35:33.910Z,3.80
2019-03-13T19:38:05.718Z,3.80
2019-03-13T19:43:02.773Z,3.90
2019-03-13T19:48:01.735Z,3.90
2019-03-13T19:50:30.340Z,3.90
2019-03-13T19:52:58.804Z,3.90
2019-03-13T19:55:27.301Z,3.90
2019-03-13T19:57:56.109Z,4.00
2019-03-13T20:00:26.530Z,4.00
2019-03-13T20:03:00.279Z,4.00
2019-03-13T20:05:27.780Z,4.00
2019-03-13T20:07:56.982Z,4.00
2019-03-13T20:10:27.073Z,4.10
2019-03-13T20:12:55.497Z,4.10
2019-03-13T20:15:31.815Z,4.10
2019-03-13T20:18:00.242Z,4.10
2019-03-13T20:20:28.722Z,4.00
2019-03-13T20:25:26.737Z,4.00
2019-03-13T20:27:55.243Z,3.90
2019-03-13T20:30:24.512Z,3.90
2019-03-13T20:32:52.934Z,3.80
2019-03-13T20:35:21.350Z,3.80
2019-03-13T20:37:50.057Z,3.70
2019-03-13T20:40:24.872Z,3.70
2019-03-13T20:42:53.552Z,3.60
2019-03-13T20:45:28.552Z,3.50
2019-03-13T20:50:35.906Z,3.40
2019-03-13T20:52:55.324Z,3.40
2019-03-13T20:55:24.172Z,3.40
2019-03-13T21:00:27.748Z,3.40
2019-03-13T21:02:57.007Z,3.30
2019-03-13T21:07:54.544Z,3.30
2019-03-13T21:10:22.951Z,3.30
2019-03-13T21:12:51.383Z,3.40
2019-03-13T21:15:24.240Z,3.40
2019-03-13T21:17:52.733Z,3.40
2019-03-13T21:25:19.017Z,3.50
2019-03-13T21:27:48.234Z,3.50
2019-03-13T21:30:24.717Z,3.50
2019-03-13T21:35:21.651Z,3.50
2019-03-13T21:37:50.052Z,3.50
2019-03-13T21:40:20.396Z,3.60
2019-03-13T21:42:48.820Z,3.60
2019-03-13T21:45:22.420Z,3.60
2019-03-13T21:52:44.272Z,3.60
2019-03-13T21:55:17.622Z,3.60
2019-03-13T21:57:46.070Z,3.70
2019-03-13T22:00:25.225Z,3.70
2019-03-13T22:05:26.027Z,3.70
2019-03-13T22:10:21.333Z,3.80
2019-03-13T22:12:50.491Z,3.80
2019-03-13T22:17:47.572Z,3.90
2019-03-13T22:20:17.412Z,3.80
2019-03-13T22:22:46.177Z,3.90
2019-03-13T22:25:19.000Z,3.80
2019-03-13T22:27:48.029Z,3.80
2019-03-13T22:30:35.777Z,3.80
2019-03-13T22:33:04.193Z,3.80
2019-03-13T22:35:32.612Z,3.80
2019-03-13T22:38:01.038Z,3.70
2019-03-13T22:40:29.432Z,3.70
2019-03-13T22:43:17.550Z,3.60
2019-03-13T22:45:46.051Z,3.60
2019-03-13T22:48:14.525Z,3.50
2019-03-13T22:50:42.936Z,3.50
2019-03-13T22:53:11.448Z,3.40
2019-03-13T22:55:41.016Z,3.40
2019-03-13T22:58:09.677Z,3.40
2019-03-13T23:00:51.339Z,3.30
2019-03-13T23:03:21.569Z,3.30
2019-03-13T23:05:50.118Z,3.30
2019-03-13T23:08:18.544Z,3.30
2019-03-13T23:10:47.040Z,3.30
2019-03-13T23:13:17.429Z,3.30
2019-03-13T23:15:45.768Z,3.30
2019-03-13T23:18:14.180Z,3.30
2019-03-13T23:20:42.596Z,3.30
2019-03-13T23:23:11.271Z,3.30
2019-03-13T23:25:39.687Z,3.30
2019-03-13T23:28:08.093Z,3.30
2019-03-13T23:30:36.521Z,3.30
2019-03-13T23:33:05.035Z,3.20
2019-03-13T23:35:33.433Z,3.20
2019-03-13T23:38:01.861Z,3.20
2019-03-13T23:40:30.287Z,3.20
2019-03-13T23:42:58.767Z,3.20
2019-03-13T23:45:27.163Z,3.20
2019-03-13T23:47:55.581Z,3.20
2019-03-13T23:50:24.253Z,3.20
2019-03-13T23:52:52.672Z,3.20
2019-03-13T23:55:21.110Z,3.20
2019-03-13T23:57:49.517Z,3.20
